createdAt,value
2023-04-13T00:00:54.089Z,98792.85
2023-04-13T00:03:24.403Z,98793.20
2023-04-13T00:05:54.001Z,98791.39
2023-04-13T00:08:25.443Z,98782.20
2023-04-13T00:10:57.730Z,98779.78
2023-04-13T00:13:25.924Z,98779.56
2023-04-13T00:15:56.100Z,98785.70
2023-04-13T00:18:25.812Z,98794.30
2023-04-13T00:20:54.626Z,98798.30
2023-04-13T00:23:23.340Z,98804.71
2023-04-13T00:25:54.729Z,98809.17
2023-04-13T00:28:24.671Z,98812.83
2023-04-13T00:30:53.333Z,98814.85
2023-04-13T00:33:22.121Z,98805.66
2023-04-13T00:35:50.301Z,98813.49
2023-04-13T00:38:18.408Z,98819.44
2023-04-13T00:40:48.826Z,98810.84
2023-04-13T00:43:18.556Z,98808.93
2023-04-13T00:45:46.676Z,98809.35
2023-04-13T00:48:21.677Z,98802.40
2023-04-13T00:50:51.693Z,98802.55
2023-04-13T00:53:20.374Z,98801.27
2023-04-13T00:55:50.942Z,98799.00
2023-04-13T00:58:21.622Z,98800.66
2023-04-13T01:00:49.802Z,98798.17
2023-04-13T01:03:20.281Z,98800.44
2023-04-13T01:05:56.907Z,98792.20
2023-04-13T01:08:31.451Z,98790.22
2023-04-13T01:11:08.896Z,98794.84
2023-04-13T01:13:42.610Z,98790.88
2023-04-13T01:16:17.663Z,98791.79
2023-04-13T01:18:47.237Z,98794.77
2023-04-13T01:21:20.670Z,98804.91
2023-04-13T01:24:20.387Z,98798.14
2023-04-13T01:27:07.364Z,98794.63
2023-04-13T01:29:36.552Z,98805.66
2023-04-13T01:32:05.666Z,98800.19
2023-04-13T01:34:34.212Z,98791.84
2023-04-13T01:37:04.954Z,98793.35
2023-04-13T01:39:34.483Z,98798.02
2023-04-13T01:42:14.364Z,98790.60
2023-04-13T01:44:45.909Z,98781.08
2023-04-13T01:47:16.662Z,98775.77
2023-04-13T01:50:15.015Z,98781.09
2023-04-13T01:52:55.666Z,98790.11
2023-04-13T01:55:24.391Z,98785.92
2023-04-13T01:57:58.068Z,98784.80
2023-04-13T02:00:33.675Z,98787.08
2023-04-13T02:03:08.729Z,98786.80
2023-04-13T02:05:42.440Z,98791.73
2023-04-13T02:08:11.013Z,98787.97
2023-04-13T02:10:43.629Z,98781.71
2023-04-13T02:13:13.729Z,98781.00
2023-04-13T02:15:43.269Z,98776.55
2023-04-13T02:18:13.800Z,98774.55
2023-04-13T02:20:45.034Z,98780.80
2023-04-13T02:23:16.766Z,98784.52
2023-04-13T02:25:48.240Z,98784.73
2023-04-13T02:28:20.904Z,98786.16
2023-04-13T02:31:00.087Z,98791.26
2023-04-13T02:33:35.990Z,98789.67
2023-04-13T02:36:04.972Z,98781.03
2023-04-13T02:38:37.714Z,98782.04
2023-04-13T02:41:23.276Z,98784.25
2023-04-13T02:43:52.516Z,98786.53
2023-04-13T02:46:23.926Z,98789.40
2023-04-13T02:49:06.182Z,98796.89
2023-04-13T02:51:40.385Z,98799.16
2023-04-13T02:54:11.675Z,98798.00
2023-04-13T02:56:44.619Z,98796.84
2023-04-13T02:59:13.439Z,98803.11
2023-04-13T03:01:45.872Z,98804.14
2023-04-13T03:04:15.621Z,98800.31
2023-04-13T03:06:46.352Z,98793.48
2023-04-13T03:09:16.406Z,98788.86
2023-04-13T03:11:53.229Z,98782.06
2023-04-13T03:14:24.681Z,98782.23
2023-04-13T03:16:59.631Z,98795.65
2023-04-13T03:19:39.053Z,98802.66
2023-04-13T03:22:10.302Z,98806.84
2023-04-13T03:24:44.513Z,98808.73
2023-04-13T03:27:28.352Z,98814.41
2023-04-13T03:29:56.835Z,98818.02
2023-04-13T03:32:34.183Z,98821.80
2023-04-13T03:35:03.326Z,98821.80
2023-04-13T03:37:35.080Z,98824.88
2023-04-13T03:40:10.882Z,98824.79
2023-04-13T03:42:45.459Z,98832.05
2023-04-13T03:45:13.848Z,98835.88
2023-04-13T03:47:43.140Z,98839.85
2023-04-13T03:50:11.923Z,98834.33
2023-04-13T03:52:41.443Z,98827.42
2023-04-13T03:55:10.590Z,98826.82
2023-04-13T03:57:41.027Z,98831.27
2023-04-13T04:00:14.409Z,98834.20
2023-04-13T04:02:57.476Z,98826.51
2023-04-13T04:05:32.105Z,98825.02
2023-04-13T04:08:03.776Z,98824.60
2023-04-13T04:10:33.474Z,98828.42
2023-04-13T04:13:03.281Z,98836.65
2023-04-13T04:15:38.424Z,98828.63
2023-04-13T04:18:07.329Z,98829.05
2023-04-13T04:20:38.347Z,98838.30
2023-04-13T04:23:11.412Z,98845.52
2023-04-13T04:26:03.121Z,98849.29
2023-04-13T04:28:39.279Z,98853.20
2023-04-13T04:31:12.341Z,98857.66
2023-04-13T04:33:43.149Z,98857.08
2023-04-13T04:36:14.440Z,98862.64
2023-04-13T04:39:02.976Z,98869.09
2023-04-13T04:41:37.981Z,98866.90
2023-04-13T04:44:09.225Z,98865.52
2023-04-13T04:46:41.956Z,98864.19
2023-04-13T04:49:14.301Z,98870.04
2023-04-13T04:51:42.551Z,98873.23
2023-04-13T04:54:14.500Z,98873.89
2023-04-13T04:56:43.190Z,98865.73
2023-04-13T04:59:13.070Z,98866.62
2023-04-13T05:01:52.649Z,98862.96
2023-04-13T05:04:21.538Z,98860.31
2023-04-13T05:06:50.220Z,98857.55
2023-04-13T05:09:22.290Z,98850.32
2023-04-13T05:11:53.539Z,98844.91
2023-04-13T05:14:22.539Z,98837.01
2023-04-13T05:16:52.241Z,98833.54
2023-04-13T05:19:25.742Z,98834.64
2023-04-13T05:22:01.290Z,98834.75
2023-04-13T05:24:33.873Z,98846.08
2023-04-13T05:27:03.779Z,98856.90
2023-04-13T05:29:33.798Z,98859.39
2023-04-13T05:32:02.822Z,98859.89
2023-04-13T05:34:32.914Z,98859.58
2023-04-13T05:37:12.256Z,98860.54
2023-04-13T05:39:40.738Z,98859.84
2023-04-13T05:42:09.313Z,98861.47
2023-04-13T05:44:47.535Z,98860.88
2023-04-13T05:47:18.723Z,98856.69
2023-04-13T05:49:47.660Z,98856.31
2023-04-13T05:52:17.120Z,98856.20
2023-04-13T05:54:50.164Z,98859.80
2023-04-13T05:58:36.353Z,98857.56
2023-04-13T06:01:17.025Z,98861.05
2023-04-13T06:03:46.877Z,98864.35
2023-04-13T06:06:17.569Z,98860.98
2023-04-13T06:08:46.465Z,98861.39
2023-04-13T06:11:15.827Z,98870.95
2023-04-13T06:13:46.711Z,98875.08
2023-04-13T06:16:16.301Z,98878.14
2023-04-13T06:18:44.585Z,98881.13
2023-04-13T06:21:14.704Z,98879.67
2023-04-13T06:23:43.935Z,98877.02
2023-04-13T06:26:18.387Z,98879.11
2023-04-13T06:28:52.642Z,98881.45
2023-04-13T06:31:23.723Z,98875.16
2023-04-13T06:33:52.470Z,98879.22
2023-04-13T06:36:26.072Z,98878.25
2023-04-13T06:38:55.783Z,98880.31
2023-04-13T06:41:24.479Z,98881.53
2023-04-13T06:43:53.062Z,98881.58
2023-04-13T06:46:30.907Z,98883.86
2023-04-13T06:49:03.464Z,98887.00
2023-04-13T06:51:33.154Z,98891.79
2023-04-13T06:54:05.612Z,98895.93
2023-04-13T06:56:40.249Z,98900.53
2023-04-13T06:59:09.651Z,98898.80
2023-04-13T07:01:38.352Z,98902.98
2023-04-13T07:04:08.844Z,98901.98
2023-04-13T07:06:37.972Z,98901.64
2023-04-13T07:09:06.242Z,98898.41
2023-04-13T07:11:38.311Z,98900.03
2023-04-13T07:14:08.943Z,98898.56
2023-04-13T07:16:37.632Z,98901.15
2023-04-13T07:19:06.214Z,98905.34
2023-04-13T07:21:36.246Z,98899.27
2023-04-13T07:24:06.767Z,98898.91
2023-04-13T07:26:41.599Z,98901.20
2023-04-13T07:29:13.902Z,98909.91
2023-04-13T07:31:48.070Z,98917.10
2023-04-13T07:34:19.158Z,98917.62
2023-04-13T07:36:47.817Z,98917.58
2023-04-13T07:39:20.044Z,98916.98
2023-04-13T07:41:49.861Z,98918.96
2023-04-13T07:44:26.647Z,98922.60
2023-04-13T07:46:56.469Z,98923.81
2023-04-13T07:49:25.970Z,98916.08
2023-04-13T07:51:54.846Z,98915.52
2023-04-13T07:54:23.639Z,98915.92
2023-04-13T07:56:52.319Z,98912.41
2023-04-13T07:59:23.510Z,98914.40
2023-04-13T08:01:53.829Z,98914.48
2023-04-13T08:04:23.080Z,98919.31
2023-04-13T08:06:54.440Z,98928.42
2023-04-13T08:09:23.541Z,98935.52
2023-04-13T08:11:53.353Z,98934.30
2023-04-13T08:14:26.034Z,98935.89
2023-04-13T08:16:55.575Z,98938.14
2023-04-13T08:19:24.442Z,98944.27
2023-04-13T08:21:55.284Z,98945.02
2023-04-13T08:24:24.416Z,98946.50
2023-04-13T08:26:55.268Z,98950.69
2023-04-13T08:29:25.617Z,98951.46
2023-04-13T08:31:58.388Z,98948.98
2023-04-13T08:34:27.625Z,98947.03
2023-04-13T08:36:55.825Z,98945.13
2023-04-13T08:39:27.586Z,98938.52
2023-04-13T08:41:57.112Z,98934.55
2023-04-13T08:44:27.621Z,98937.35
2023-04-13T08:47:00.199Z,98938.67
2023-04-13T08:49:32.721Z,98939.89
2023-04-13T08:52:09.261Z,98942.48
2023-04-13T08:54:46.146Z,98948.76
2023-04-13T08:57:24.910Z,98950.84
2023-04-13T08:59:53.418Z,98954.36
2023-04-13T09:02:28.637Z,98954.06
2023-04-13T09:05:04.305Z,98956.83
2023-04-13T09:07:34.778Z,98956.30
2023-04-13T09:10:10.587Z,98957.34
2023-04-13T09:12:41.696Z,98958.23
2023-04-13T09:15:11.129Z,98958.48
2023-04-13T09:17:48.572Z,98962.86
2023-04-13T09:20:27.314Z,98966.54
2023-04-13T09:22:57.626Z,98964.67
2023-04-13T09:25:29.884Z,98969.71
2023-04-13T09:27:59.350Z,98969.73
2023-04-13T09:30:28.034Z,98963.39
2023-04-13T09:33:05.441Z,98959.61
2023-04-13T09:35:34.521Z,98967.97
2023-04-13T09:38:06.538Z,98963.61
2023-04-13T09:40:38.527Z,98960.33
2023-04-13T09:43:10.574Z,98957.73
2023-04-13T09:45:44.544Z,98958.42
2023-04-13T09:48:21.599Z,98957.59
2023-04-13T09:51:06.872Z,98959.73
2023-04-13T09:53:48.528Z,98963.50
2023-04-13T09:56:17.419Z,98963.55
2023-04-13T09:58:49.160Z,98969.07
2023-04-13T10:01:19.323Z,98967.31
2023-04-13T10:03:48.384Z,98974.88
2023-04-13T10:06:16.817Z,98973.04
2023-04-13T10:08:51.834Z,98972.45
2023-04-13T10:11:20.509Z,98968.83
2023-04-13T10:13:53.820Z,98967.13
2023-04-13T10:16:59.048Z,98965.98
2023-04-13T10:19:29.596Z,98970.77
2023-04-13T10:21:58.970Z,98977.63
2023-04-13T10:24:31.160Z,98979.66
2023-04-13T10:27:10.566Z,98981.39
2023-04-13T10:29:39.268Z,98984.80
2023-04-13T10:32:07.795Z,98986.42
2023-04-13T10:34:38.522Z,98989.77
2023-04-13T10:37:16.571Z,98985.37
2023-04-13T10:39:44.739Z,98988.01
2023-04-13T10:42:15.385Z,98990.17
2023-04-13T10:44:48.835Z,98990.16
2023-04-13T10:47:20.753Z,99000.73
2023-04-13T10:49:49.920Z,98995.79
2023-04-13T10:52:18.432Z,98995.43
2023-04-13T10:54:46.884Z,99000.48
2023-04-13T10:57:17.025Z,99003.67
2023-04-13T10:59:59.253Z,99003.85
2023-04-13T11:02:34.523Z,99005.51
2023-04-13T11:05:03.082Z,99007.13
2023-04-13T11:07:33.907Z,99006.95
2023-04-13T11:10:03.524Z,99009.67
2023-04-13T11:12:33.255Z,99009.25
2023-04-13T11:15:04.392Z,99013.06
2023-04-13T11:17:34.210Z,99013.42
2023-04-13T11:20:03.393Z,99015.02
2023-04-13T11:22:36.797Z,99014.85
2023-04-13T11:25:07.118Z,99016.44
2023-04-13T11:27:36.001Z,99015.32
2023-04-13T11:30:07.797Z,99015.61
2023-04-13T11:32:45.378Z,99012.95
2023-04-13T11:35:15.002Z,99011.68
2023-04-13T11:37:52.777Z,99013.61
2023-04-13T11:40:23.119Z,99017.27
2023-04-13T11:42:55.722Z,99017.40
2023-04-13T11:45:29.061Z,99019.90
2023-04-13T11:47:57.577Z,99028.40
2023-04-13T11:50:26.957Z,99032.72
2023-04-13T11:52:58.701Z,99028.98
2023-04-13T11:55:26.892Z,99031.20
2023-04-13T11:57:55.672Z,99032.56
2023-04-13T12:00:27.114Z,99032.95
2023-04-13T12:05:31.651Z,99032.28
2023-04-13T12:08:09.986Z,99028.20
2023-04-13T12:10:49.404Z,99031.56
2023-04-13T12:13:47.163Z,99037.58
2023-04-13T12:19:10.004Z,99041.21
2023-04-13T12:21:40.138Z,99039.16
2023-04-13T12:24:11.779Z,99041.94
2023-04-13T12:27:17.169Z,99045.67
2023-04-13T12:29:30.295Z,99051.33
2023-04-13T12:32:04.098Z,99048.48
2023-04-13T12:34:32.544Z,99051.73
2023-04-13T12:37:01.269Z,99048.92
2023-04-13T12:39:29.864Z,99050.84
2023-04-13T12:41:58.131Z,99051.34
2023-04-13T12:44:27.942Z,99049.70
2023-04-13T12:46:57.310Z,99048.69
2023-04-13T12:49:26.036Z,99047.45
2023-04-13T12:51:55.741Z,99047.20
2023-04-13T12:54:24.130Z,99049.17
2023-04-13T12:56:52.532Z,99048.37
2023-04-13T12:59:24.412Z,99045.54
2023-04-13T13:01:52.977Z,99045.27
2023-04-13T13:04:22.484Z,99042.45
2023-04-13T13:06:52.740Z,99047.14
2023-04-13T13:09:21.154Z,99051.20
2023-04-13T13:11:53.363Z,99052.88
2023-04-13T13:14:22.319Z,99056.80
2023-04-13T13:16:50.742Z,99059.11
2023-04-13T13:19:20.201Z,99060.59
2023-04-13T13:21:48.998Z,99061.48
2023-04-13T13:24:17.269Z,99058.95
2023-04-13T13:27:12.089Z,99055.96
2023-04-13T13:29:37.390Z,99057.93
2023-04-13T13:32:06.742Z,99057.43
2023-04-13T13:34:35.256Z,99063.83
2023-04-13T13:37:03.738Z,99069.08
2023-04-13T13:39:35.782Z,99071.25
2023-04-13T13:42:05.013Z,99066.84
2023-04-13T13:44:36.406Z,99069.39
2023-04-13T13:47:05.449Z,99067.09
2023-04-13T13:49:34.342Z,99064.20
2023-04-13T13:52:17.365Z,99058.30
2023-04-13T13:54:50.349Z,99059.62
2023-04-13T13:57:18.735Z,99058.44
2023-04-13T13:59:49.411Z,99062.27
2023-04-13T14:02:18.113Z,99059.31
2023-04-13T14:04:46.948Z,99060.47
2023-04-13T14:07:15.644Z,99063.80
2023-04-13T14:09:45.652Z,99062.56
2023-04-13T14:12:13.917Z,99067.18
2023-04-13T14:14:42.500Z,99070.02
2023-04-13T14:17:10.778Z,99070.28
2023-04-13T14:19:40.183Z,99071.08
2023-04-13T14:22:08.621Z,99071.42
2023-04-13T14:24:38.401Z,99071.82
2023-04-13T14:27:08.082Z,99073.48
2023-04-13T14:29:36.468Z,99074.97
2023-04-13T14:32:08.735Z,99076.92
2023-04-13T14:34:37.735Z,99078.42
2023-04-13T14:37:06.721Z,99079.83
2023-04-13T14:39:36.939Z,99081.64
2023-04-13T14:42:07.984Z,99084.70
2023-04-13T14:44:36.494Z,99082.36
2023-04-13T14:47:11.879Z,99077.52
2023-04-13T14:49:40.913Z,99080.05
2023-04-13T14:52:09.204Z,99077.34
2023-04-13T14:54:39.402Z,99086.50
2023-04-13T14:57:07.783Z,99087.68
2023-04-13T14:59:36.469Z,99087.68
2023-04-13T15:02:06.982Z,99086.73
2023-04-13T15:04:37.546Z,99089.21
2023-04-13T15:07:05.815Z,99085.07
2023-04-13T15:09:33.982Z,99086.19
2023-04-13T15:12:04.510Z,99086.29
2023-04-13T15:14:37.085Z,99089.86
2023-04-13T15:17:07.211Z,99094.72
2023-04-13T15:19:35.574Z,99095.77
2023-04-13T15:22:04.169Z,99099.81
2023-04-13T15:24:32.642Z,99099.54
2023-04-13T15:27:01.172Z,99100.56
2023-04-13T15:29:29.708Z,99103.77
2023-04-13T15:31:58.561Z,99103.75
2023-04-13T15:34:28.209Z,99109.59
2023-04-13T15:36:57.303Z,99109.52
2023-04-13T15:39:26.810Z,99113.20
2023-04-13T15:42:00.536Z,99113.29
2023-04-13T15:44:29.097Z,99115.74
2023-04-13T15:46:57.686Z,99121.52
2023-04-13T15:49:26.172Z,99120.38
2023-04-13T15:51:54.439Z,99122.73
2023-04-13T15:54:22.818Z,99128.13
2023-04-13T15:56:51.821Z,99130.38
2023-04-13T15:59:21.735Z,99132.23
2023-04-13T16:01:50.781Z,99132.54
2023-04-13T16:04:19.267Z,99138.40
2023-04-13T16:06:55.780Z,99138.36
2023-04-13T16:09:35.332Z,99141.02
2023-04-13T16:12:07.924Z,99142.61
2023-04-13T16:14:39.047Z,99137.88
2023-04-13T16:17:08.340Z,99138.52
2023-04-13T16:19:41.988Z,99145.60
2023-04-13T16:22:10.732Z,99147.51
2023-04-13T16:24:42.794Z,99146.70
2023-04-13T16:27:12.839Z,99146.18
2023-04-13T16:29:45.486Z,99148.67
2023-04-13T16:32:13.768Z,99145.90
2023-04-13T16:34:43.077Z,99148.84
2023-04-13T16:37:12.842Z,99148.70
2023-04-13T16:39:45.836Z,99151.88
2023-04-13T16:42:14.144Z,99153.36
2023-04-13T16:44:42.934Z,99158.27
2023-04-13T16:47:20.145Z,99158.85
2023-04-13T16:49:48.319Z,99161.30
2023-04-13T16:52:16.565Z,99161.57
2023-04-13T16:54:46.490Z,99163.11
2023-04-13T16:57:14.707Z,99167.95
2023-04-13T16:59:43.047Z,99171.23
2023-04-13T17:02:28.120Z,99176.72
2023-04-13T17:04:59.668Z,99177.95
2023-04-13T17:07:29.987Z,99172.98
2023-04-13T17:10:18.746Z,99179.89
2023-04-13T17:12:48.463Z,99186.88
2023-04-13T17:15:21.545Z,99186.17
2023-04-13T17:17:55.279Z,99189.67
2023-04-13T17:20:23.627Z,99194.25
2023-04-13T17:22:52.420Z,99199.09
2023-04-13T17:25:24.288Z,99201.55
2023-04-13T17:27:53.586Z,99202.75
2023-04-13T17:30:24.941Z,99207.27
2023-04-13T17:32:58.811Z,99207.54
2023-04-13T17:35:27.872Z,99208.34
2023-04-13T17:37:56.464Z,99209.27
2023-04-13T17:40:32.217Z,99208.84
2023-04-13T17:43:00.589Z,99210.91
2023-04-13T17:45:31.459Z,99212.77
2023-04-13T17:48:05.269Z,99211.77
2023-04-13T17:50:34.559Z,99211.13
2023-04-13T17:53:04.498Z,99209.85
2023-04-13T17:55:37.560Z,99207.91
2023-04-13T17:58:06.136Z,99210.95
2023-04-13T18:00:34.707Z,99211.64
2023-04-13T18:03:05.788Z,99211.58
2023-04-13T18:05:35.484Z,99214.93
2023-04-13T18:08:03.840Z,99215.41
2023-04-13T18:10:33.771Z,99218.61
2023-04-13T18:13:08.045Z,99222.08
2023-04-13T18:17:31.012Z,99223.73
2023-04-13T18:20:09.283Z,99231.64
2023-04-13T18:22:39.376Z,99231.11
2023-04-13T18:25:09.878Z,99233.19
2023-04-13T18:27:38.279Z,99235.95
2023-04-13T18:30:09.256Z,99238.98
2023-04-13T18:32:38.333Z,99239.73
2023-04-13T18:35:07.317Z,99236.94
2023-04-13T18:37:41.573Z,99234.38
2023-04-13T18:40:11.134Z,99235.96
2023-04-13T18:42:40.850Z,99235.77
2023-04-13T18:45:11.686Z,99235.62
2023-04-13T18:47:42.541Z,99236.45
2023-04-13T18:50:11.817Z,99236.52
2023-04-13T18:52:40.722Z,99237.62
2023-04-13T18:55:09.924Z,99239.48
2023-04-13T18:57:42.295Z,99237.40
2023-04-13T19:00:11.744Z,99237.14
2023-04-13T19:02:42.485Z,99240.39
2023-04-13T19:05:12.909Z,99241.91
2023-04-13T19:07:45.231Z,99237.99
2023-04-13T19:10:14.019Z,99239.16
2023-04-13T19:12:43.205Z,99236.55
2023-04-13T19:15:16.910Z,99238.52
2023-04-13T19:17:47.489Z,99239.33
2023-04-13T19:20:16.022Z,99241.77
2023-04-13T19:22:44.401Z,99242.13
2023-04-13T19:25:18.320Z,99244.14
2023-04-13T19:27:48.636Z,99242.13
2023-04-13T19:30:17.524Z,99235.70
2023-04-13T19:32:59.463Z,99241.05
2023-04-13T19:35:28.777Z,99240.17
2023-04-13T19:37:57.613Z,99245.05
2023-04-13T19:40:33.468Z,99241.79
2023-04-13T19:43:02.060Z,99244.18
2023-04-13T19:45:31.117Z,99250.66
2023-04-13T19:47:59.760Z,99247.16
2023-04-13T19:50:29.754Z,99249.62
2023-04-13T19:52:58.434Z,99249.18
2023-04-13T19:55:28.555Z,99255.88
2023-04-13T19:57:56.833Z,99254.14
2023-04-13T20:00:29.653Z,99254.64
2023-04-13T20:03:03.756Z,99258.59
2023-04-13T20:05:32.932Z,99254.07
2023-04-13T20:08:01.209Z,99254.91
2023-04-13T20:10:29.596Z,99259.33
2023-04-13T20:13:00.017Z,99260.55
2023-04-13T20:15:33.220Z,99259.68
2023-04-13T20:18:07.527Z,99259.05
2023-04-13T20:20:36.709Z,99257.15
2023-04-13T20:23:05.135Z,99254.48
2023-04-13T20:25:33.898Z,99258.04
2023-04-13T20:28:04.516Z,99261.96
2023-04-13T20:30:33.005Z,99262.46
2023-04-13T20:33:07.404Z,99259.55
2023-04-13T20:35:35.863Z,99256.67
2023-04-13T20:38:05.648Z,99258.27
2023-04-13T20:40:37.865Z,99262.20
2023-04-13T20:43:06.568Z,99263.52
2023-04-13T20:45:38.573Z,99265.37
2023-04-13T20:50:39.486Z,99264.00
2023-04-13T20:53:13.602Z,99260.48
2023-04-13T20:55:42.794Z,99262.39
2023-04-13T20:58:13.555Z,99261.28
2023-04-13T21:00:47.158Z,99261.80
2023-04-13T21:03:18.627Z,99265.05
2023-04-13T21:05:47.111Z,99268.10
2023-04-13T21:08:16.867Z,99264.70
2023-04-13T21:10:49.984Z,99263.36
2023-04-13T21:13:18.866Z,99264.21
2023-04-13T21:15:47.311Z,99266.60
2023-04-13T21:18:18.772Z,99269.08
2023-04-13T21:20:50.286Z,99271.05
2023-04-13T21:23:18.531Z,99272.61
2023-04-13T21:25:49.677Z,99271.70
2023-04-13T21:28:21.144Z,99273.23
2023-04-13T21:30:49.632Z,99271.08
2023-04-13T21:33:24.227Z,99271.65
2023-04-13T21:35:52.534Z,99269.52
2023-04-13T21:38:21.025Z,99267.95
2023-04-13T21:40:49.707Z,99268.29
2023-04-13T21:43:18.632Z,99273.41
2023-04-13T21:45:47.239Z,99276.32
2023-04-13T21:48:22.538Z,99276.52
2023-04-13T21:50:53.683Z,99272.75
2023-04-13T21:53:22.683Z,99270.98
2023-04-13T21:55:51.861Z,99270.56
2023-04-13T21:58:24.336Z,99269.69
2023-04-13T22:00:52.431Z,99275.02
2023-04-13T22:03:21.420Z,99273.95
2023-04-13T22:05:49.683Z,99271.41
2023-04-13T22:08:19.682Z,99270.60
2023-04-13T22:10:49.050Z,99270.60
2023-04-13T22:13:17.531Z,99270.01
2023-04-13T22:15:47.256Z,99271.54
2023-04-13T22:18:18.027Z,99273.13
2023-04-13T22:20:46.301Z,99272.61
2023-04-13T22:23:15.665Z,99271.42
2023-04-13T22:25:51.524Z,99269.04
2023-04-13T22:28:20.014Z,99273.19
2023-04-13T22:30:53.836Z,99272.77
2023-04-13T22:33:23.199Z,99272.70
2023-04-13T22:35:52.040Z,99272.47
2023-04-13T22:38:22.649Z,99273.06
2023-04-13T22:40:51.478Z,99273.58
2023-04-13T22:43:19.825Z,99273.65
2023-04-13T22:46:00.781Z,99269.08
2023-04-13T22:48:30.105Z,99271.06
2023-04-13T22:51:00.809Z,99267.23
2023-04-13T22:53:31.670Z,99266.83
2023-04-13T22:56:01.026Z,99268.59
2023-04-13T22:58:29.981Z,99273.08
2023-04-13T23:00:59.535Z,99270.05
2023-04-13T23:03:28.690Z,99271.48
2023-04-13T23:05:58.473Z,99272.81
2023-04-13T23:11:11.513Z,99278.23
2023-04-13T23:13:41.975Z,99275.63
2023-04-13T23:16:14.602Z,99280.16
2023-04-13T23:18:45.698Z,99281.52
2023-04-13T23:21:14.284Z,99281.70
2023-04-13T23:23:43.276Z,99284.05
2023-04-13T23:26:12.774Z,99285.09
2023-04-13T23:28:41.270Z,99288.63
2023-04-13T23:31:13.781Z,99286.89
2023-04-13T23:33:43.033Z,99287.30
2023-04-13T23:36:11.945Z,99284.71
2023-04-13T23:38:43.942Z,99288.17
2023-04-13T23:41:13.067Z,99289.09
2023-04-13T23:43:41.338Z,99291.05
2023-04-13T23:46:10.396Z,99290.27
2023-04-13T23:48:40.279Z,99293.17
2023-04-13T23:51:10.356Z,99299.00
2023-04-13T23:53:39.028Z,99300.38
2023-04-13T23:56:07.742Z,99304.36
2023-04-13T23:58:36.090Z,99298.56
